Time;durP1;ratioP1;P1;durP2;ratioP2;P2;SDS_P1;SDS_P2;PMS_P1;PMS_P2;Temp;Humidity;BMP_temperature;BMP_pressure;BME280_temperature;BME280_humidity;BME280_pressure;Samples;Min_cycle;Max_cycle;Signal;HPM_P1;HPM_P2
2023/06/30 00:00:11;;;;;;;5.75;4.00;;;;;;;18.66;78.05;96876.53;5036954;28;20075;-57
2023/06/30 00:02:40;;;;;;;6.43;4.13;;;;;;;18.76;77.62;96878.97;5039915;28;20075;-55
2023/06/30 00:05:08;;;;;;;6.90;4.10;;;;;;;18.82;77.37;96871.41;5044051;28;20520;-55
2023/06/30 00:07:35;;;;;;;6.25;3.83;;;;;;;18.77;77.44;96869.63;5051959;28;20123;-55
2023/06/30 00:10:02;;;;;;;5.75;4.00;;;;;;;18.81;77.59;96870.63;5051406;28;20049;-53
2023/06/30 00:12:28;;;;;;;8.52;3.80;;;;;;;18.91;76.56;96872.22;5048586;28;20431;-58
2023/06/30 00:14:55;;;;;;;6.85;4.03;;;;;;;18.68;78.83;96869.59;5038762;28;20113;-59
2023/06/30 00:17:21;;;;;;;8.77;4.28;;;;;;;18.43;80.38;96862.91;5045700;28;20463;-54
2023/06/30 00:19:50;;;;;;;6.80;4.82;;;;;;;18.11;82.73;96859.34;5049160;28;20041;-55
2023/06/30 00:22:21;;;;;;;6.15;3.97;;;;;;;17.86;83.20;96867.88;5041613;28;20040;-52
2023/06/30 00:24:54;;;;;;;10.50;4.63;;;;;;;17.85;83.41;96849.84;5050229;28;20041;-56
2023/06/30 00:27:22;;;;;;;8.68;3.97;;;;;;;17.99;82.42;96849.75;5043014;28;20037;-56
2023/06/30 00:29:48;;;;;;;8.95;4.63;;;;;;;17.99;82.51;96841.53;5047422;28;20034;-56
2023/06/30 00:32:15;;;;;;;6.35;4.22;;;;;;;17.80;84.05;96839.03;5043878;28;20041;-55
2023/06/30 00:34:42;;;;;;;6.95;4.47;;;;;;;17.75;85.43;96831.75;5046920;28;20045;-58
2023/06/30 00:37:09;;;;;;;6.70;4.30;;;;;;;17.73;84.87;96833.97;5038370;28;20048;-56
2023/06/30 00:39:35;;;;;;;7.50;4.18;;;;;;;17.63;85.06;96835.06;5044492;28;20056;-53
2023/06/30 00:42:02;;;;;;;6.30;4.35;;;;;;;17.59;85.16;96833.25;5047622;28;20029;-57
2023/06/30 00:44:29;;;;;;;9.13;4.50;;;;;;;17.51;85.73;96832.84;5039921;28;20618;-55
2023/06/30 00:46:59;;;;;;;8.95;4.88;;;;;;;17.46;85.53;96824.78;5039972;28;20072;-52
2023/06/30 00:49:28;;;;;;;7.18;4.18;;;;;;;17.42;85.71;96823.78;5044763;28;20049;-56
2023/06/30 00:51:55;;;;;;;7.60;4.65;;;;;;;17.28;86.81;96815.63;5041724;28;20212;-56
2023/06/30 00:54:21;;;;;;;8.65;5.10;;;;;;;17.15;87.52;96812.63;5045288;28;20127;-53
2023/06/30 00:56:48;;;;;;;6.85;4.05;;;;;;;17.18;87.59;96810.41;5044841;28;20107;-55
2023/06/30 00:59:15;;;;;;;5.68;4.50;;;;;;;17.13;87.55;96816.78;5036103;28;20053;-56
2023/06/30 01:02:02;;;;;;;6.40;4.20;;;;;;;16.96;89.09;96812.78;5040239;28;20051;-55
2023/06/30 01:04:52;;;;;;;7.18;4.20;;;;;;;16.95;89.34;96805.66;5041207;28;20051;-57
2023/06/30 01:07:44;;;;;;;7.30;4.78;;;;;;;17.10;88.29;96810.00;5042200;28;20072;-55
2023/06/30 01:10:19;;;;;;;6.47;4.55;;;;;;;17.12;88.46;96805.06;5046662;28;20605;-56
2023/06/30 01:12:46;;;;;;;7.53;4.55;;;;;;;17.03;88.63;96795.94;5050157;28;20501;-58
2023/06/30 01:15:14;;;;;;;7.68;4.72;;;;;;;17.06;88.26;96798.06;5044756;28;20060;-58
2023/06/30 01:17:46;;;;;;;7.07;4.97;;;;;;;17.13;88.21;96806.66;5042537;28;20131;-56
2023/06/30 01:20:16;;;;;;;6.38;4.47;;;;;;;17.15;88.46;96809.09;5043055;28;20056;-55
2023/06/30 01:23:10;;;;;;;7.30;4.65;;;;;;;17.15;88.43;96809.09;5043646;28;20120;-54
2023/06/30 01:25:38;;;;;;;6.97;4.50;;;;;;;17.16;88.30;96807.97;5048827;28;20041;-55
2023/06/30 01:28:07;;;;;;;6.65;4.28;;;;;;;17.30;87.71;96802.44;5042185;28;20041;-57
2023/06/30 01:30:36;;;;;;;11.57;5.10;;;;;;;17.39;86.07;96794.28;5038833;28;20057;-57
2023/06/30 01:33:02;;;;;;;6.97;4.50;;;;;;;17.40;86.34;96795.94;5050012;28;20052;-54
2023/06/30 01:35:29;;;;;;;8.00;4.93;;;;;;;17.41;86.91;96792.06;5042995;28;20055;-54
2023/06/30 01:37:59;;;;;;;7.30;4.50;;;;;;;17.36;86.79;96795.72;5047834;28;20076;-57
2023/06/30 01:40:26;;;;;;;6.93;4.47;;;;;;;17.27;86.99;96792.13;5045348;28;20037;-56
2023/06/30 01:42:55;;;;;;;7.03;4.68;;;;;;;17.17;87.61;96793.16;5038348;28;20041;-54
2023/06/30 01:45:24;;;;;;;7.53;4.93;;;;;;;17.12;88.66;96787.81;5031697;28;20623;-57
2023/06/30 01:47:52;;;;;;;7.70;4.80;;;;;;;17.03;88.62;96788.53;5051624;28;20045;-55
2023/06/30 01:50:20;;;;;;;6.85;4.28;;;;;;;17.09;88.02;96782.97;5045336;28;20499;-53
2023/06/30 01:52:47;;;;;;;6.65;4.47;;;;;;;17.16;87.24;96786.09;5056753;28;20059;-54
2023/06/30 01:55:13;;;;;;;7.13;5.05;;;;;;;17.29;86.51;96779.75;5050516;28;20051;-55
2023/06/30 01:57:40;;;;;;;6.75;4.30;;;;;;;17.33;86.04;96773.66;5046470;28;20083;-56
2023/06/30 02:00:07;;;;;;;8.38;4.47;;;;;;;17.39;85.89;96775.13;5052288;28;20098;-57
2023/06/30 02:02:40;;;;;;;7.15;4.40;;;;;;;17.43;85.47;96773.41;5040522;28;20060;-57
2023/06/30 02:05:08;;;;;;;8.70;5.07;;;;;;;17.31;86.58;96763.03;5046038;28;20047;-55
2023/06/30 02:07:35;;;;;;;7.82;4.55;;;;;;;17.29;86.34;96763.34;5042823;28;20083;-57
2023/06/30 02:10:06;;;;;;;8.18;4.72;;;;;;;17.35;85.46;96760.47;5049530;28;20114;-52
2023/06/30 02:12:33;;;;;;;8.57;4.70;;;;;;;17.40;84.63;96763.09;5043642;28;20087;-55
2023/06/30 02:14:59;;;;;;;7.28;4.68;;;;;;;17.41;84.41;96767.44;5049168;28;20073;-55
2023/06/30 02:17:33;;;;;;;10.65;4.43;;;;;;;17.39;84.35;96766.94;5038400;28;20124;-54
2023/06/30 02:20:01;;;;;;;7.35;4.93;;;;;;;17.40;84.66;96776.78;5057873;28;20511;-57
2023/06/30 02:22:27;;;;;;;6.57;5.03;;;;;;;17.33;84.89;96773.66;5043182;28;20804;-53
2023/06/30 02:24:56;;;;;;;7.20;4.63;;;;;;;17.27;85.58;96775.72;5041731;28;20036;-56
2023/06/30 02:27:23;;;;;;;8.38;5.47;;;;;;;17.39;84.47;96778.69;5049282;28;20539;-54
2023/06/30 02:29:50;;;;;;;7.07;4.53;;;;;;;17.42;84.82;96775.34;5046931;28;20064;-57
2023/06/30 02:32:17;;;;;;;6.57;4.80;;;;;;;17.35;85.95;96771.41;5042765;28;20045;-56
2023/06/30 02:34:44;;;;;;;8.82;5.47;;;;;;;17.34;85.39;96778.00;5046487;28;20555;-54
2023/06/30 02:37:11;;;;;;;6.70;5.22;;;;;;;17.37;85.38;96774.66;5038613;28;20650;-57
2023/06/30 02:39:38;;;;;;;9.13;5.78;;;;;;;17.42;84.65;96769.88;5050239;28;20071;-54
2023/06/30 02:42:04;;;;;;;6.38;4.45;;;;;;;17.46;83.75;96772.00;5055887;28;20043;-56
2023/06/30 02:44:31;;;;;;;7.28;5.10;;;;;;;17.56;82.96;96771.72;5049621;28;20037;-56
2023/06/30 02:46:58;;;;;;;5.75;4.18;;;;;;;17.65;82.97;96778.06;5041885;28;20045;-53
2023/06/30 02:49:24;;;;;;;8.75;4.68;;;;;;;17.54;83.70;96763.81;5044200;28;20048;-52
2023/06/30 02:51:51;;;;;;;7.60;4.75;;;;;;;17.52;83.37;96773.47;5044025;28;20037;-56
2023/06/30 02:54:18;;;;;;;7.68;5.18;;;;;;;17.49;84.19;96771.34;5051027;28;20048;-52
2023/06/30 02:56:44;;;;;;;8.85;6.00;;;;;;;17.53;84.01;96762.22;5042134;28;20458;-55
2023/06/30 02:59:11;;;;;;;7.53;5.13;;;;;;;17.54;84.74;96763.81;5054088;28;20127;-56
2023/06/30 03:01:40;;;;;;;7.50;5.28;;;;;;;17.53;84.73;96766.88;5041409;28;20057;-54
2023/06/30 03:04:07;;;;;;;7.30;5.00;;;;;;;17.58;84.32;96766.72;5053148;28;20045;-55
2023/06/30 03:06:35;;;;;;;5.90;4.78;;;;;;;17.59;84.77;96762.88;5050187;28;20064;-57
2023/06/30 03:09:02;;;;;;;8.57;4.97;;;;;;;17.60;84.46;96764.50;5043260;28;20063;-55
2023/06/30 03:11:30;;;;;;;11.55;5.22;;;;;;;17.52;84.15;96757.03;5049990;28;20043;-50
2023/06/30 03:13:57;;;;;;;6.10;5.05;;;;;;;17.35;86.26;96760.47;5047392;28;20131;-54
2023/06/30 03:16:29;;;;;;;8.80;4.80;;;;;;;17.34;85.12;96756.94;5035459;28;20042;-55
2023/06/30 03:18:55;;;;;;;9.07;4.57;;;;;;;17.31;85.58;96756.75;5041253;28;20465;-55
2023/06/30 03:21:22;;;;;;;7.68;5.30;;;;;;;17.22;86.27;96754.78;5042991;28;20049;-52
2023/06/30 03:23:49;;;;;;;7.65;5.00;;;;;;;16.82;89.55;96752.66;5046473;28;20041;-52
2023/06/30 03:26:16;;;;;;;8.55;6.00;;;;;;;16.74;90.29;96756.09;5049935;28;20144;-56
2023/06/30 03:28:42;;;;;;;9.15;6.05;;;;;;;16.62;91.06;96756.66;5048825;28;20052;-51
2023/06/30 03:31:09;;;;;;;10.77;5.55;;;;;;;16.55;91.22;96753.50;5045090;28;20087;-55
2023/06/30 03:33:36;;;;;;;8.18;5.65;;;;;;;16.68;90.97;96754.59;5051847;28;20102;-56
2023/06/30 03:36:02;;;;;;;7.30;5.20;;;;;;;16.83;89.73;96756.16;5045488;28;20530;-55
2023/06/30 03:38:29;;;;;;;6.57;4.85;;;;;;;16.90;89.23;96751.91;5053432;28;20543;-57
2023/06/30 03:40:55;;;;;;;7.20;4.78;;;;;;;16.82;90.11;96751.81;5050061;28;20584;-52
2023/06/30 03:43:23;;;;;;;8.75;5.78;;;;;;;16.85;89.34;96746.53;5040489;28;20041;-52
2023/06/30 03:45:52;;;;;;;8.57;5.68;;;;;;;16.86;89.74;96745.44;5044900;28;20072;-57
2023/06/30 03:48:20;;;;;;;7.82;5.43;;;;;;;16.83;90.53;96745.25;5049640;28;20045;-53
2023/06/30 03:50:48;;;;;;;7.45;5.20;;;;;;;16.86;90.29;96748.19;5045669;28;20072;-54
2023/06/30 03:53:14;;;;;;;8.30;5.55;;;;;;;16.80;90.94;96741.19;5036403;28;20768;-56
2023/06/30 03:55:41;;;;;;;7.63;5.35;;;;;;;16.83;90.97;96750.69;5041786;28;20059;-56
2023/06/30 03:58:08;;;;;;;8.10;5.50;;;;;;;16.87;90.96;96751.72;5038669;28;20119;-55
2023/06/30 04:00:35;;;;;;;6.85;5.18;;;;;;;16.94;90.52;96745.81;5041283;28;20625;-52
2023/06/30 04:03:02;;;;;;;7.85;5.25;;;;;;;17.12;89.09;96744.88;5045984;28;20043;-54
2023/06/30 04:05:29;;;;;;;8.20;5.20;;;;;;;17.19;88.30;96749.91;5045569;28;20050;-55
2023/06/30 04:07:55;;;;;;;7.85;5.43;;;;;;;17.22;88.34;96754.78;5048672;28;20052;-53
2023/06/30 04:10:22;;;;;;;7.78;5.25;;;;;;;17.23;88.96;96750.91;5051188;28;20071;-57
2023/06/30 04:12:49;;;;;;;8.25;5.57;;;;;;;17.26;88.52;96746.75;5044812;28;20044;-55
2023/06/30 04:15:15;;;;;;;10.60;5.00;;;;;;;17.27;88.07;96749.16;5050991;28;20040;-54
2023/06/30 04:17:41;;;;;;;7.03;5.15;;;;;;;17.32;88.35;96747.44;5047339;28;20554;-55
2023/06/30 04:20:09;;;;;;;9.85;5.35;;;;;;;17.37;88.50;96756.31;5048244;28;20036;-56
2023/06/30 04:22:37;;;;;;;9.88;5.60;;;;;;;17.43;88.86;96765.19;5047602;28;20683;-55
2023/06/30 04:25:06;;;;;;;8.05;6.32;;;;;;;17.37;89.44;96772.75;5032769;28;20041;-57
2023/06/30 04:27:32;;;;;;;8.75;5.03;;;;;;;17.44;88.41;96769.56;5039600;28;20507;-52
2023/06/30 04:29:59;;;;;;;7.45;4.90;;;;;;;17.52;87.38;96784.41;5048083;28;20049;-57
2023/06/30 04:32:25;;;;;;;7.35;5.32;;;;;;;17.65;85.84;96789.00;5051974;28;20090;-52
2023/06/30 04:34:52;;;;;;;7.10;4.90;;;;;;;17.80;83.99;96784.28;5036708;28;20057;-55
2023/06/30 04:37:18;;;;;;;10.00;5.65;;;;;;;17.92;83.17;96779.00;5045616;28;20045;-56
2023/06/30 04:39:47;;;;;;;7.68;4.88;;;;;;;18.09;82.09;96785.69;5049972;28;20040;-57
2023/06/30 04:42:14;;;;;;;7.63;4.70;;;;;;;18.19;81.65;96782.69;5052240;28;20692;-51
2023/06/30 04:44:41;;;;;;;8.55;5.65;;;;;;;18.17;81.94;96775.94;5042532;28;20116;-53
2023/06/30 04:47:08;;;;;;;7.95;5.32;;;;;;;18.19;81.92;96771.75;5045237;28;20048;-55
2023/06/30 04:49:34;;;;;;;11.00;4.95;;;;;;;18.26;81.39;96771.28;5050904;28;20045;-53
2023/06/30 04:52:01;;;;;;;7.72;5.05;;;;;;;18.30;81.44;96768.69;5041226;28;20124;-55
2023/06/30 04:54:28;;;;;;;7.47;5.35;;;;;;;18.33;81.77;96773.56;5045848;28;20078;-54
2023/06/30 04:56:56;;;;;;;8.20;4.90;;;;;;;18.38;81.12;96769.84;5040779;28;20045;-55
2023/06/30 04:59:23;;;;;;;7.85;4.75;;;;;;;18.41;81.19;96775.50;5046354;28;20507;-55
2023/06/30 05:01:50;;;;;;;9.82;5.25;;;;;;;18.37;83.16;96773.72;5054319;28;20045;-55
2023/06/30 05:04:17;;;;;;;7.85;4.75;;;;;;;18.38;82.38;96769.84;5037957;28;20742;-54
2023/06/30 05:06:44;;;;;;;7.25;4.80;;;;;;;18.44;81.38;96782.28;5040100;28;20503;-54
2023/06/30 05:09:10;;;;;;;7.53;4.57;;;;;;;18.48;80.64;96768.75;5042842;28;20053;-56
2023/06/30 05:11:37;;;;;;;13.20;5.20;;;;;;;18.59;80.44;96775.56;5040372;28;20154;-55
2023/06/30 05:14:04;;;;;;;9.63;5.38;;;;;;;18.60;82.48;96779.91;5056433;28;20036;-57
2023/06/30 05:16:31;;;;;;;7.85;4.60;;;;;;;18.59;82.99;96770.88;5045425;28;20116;-51
2023/06/30 05:19:00;;;;;;;6.93;4.90;;;;;;;18.47;85.02;96770.69;5045094;28;20041;-55
2023/06/30 05:21:27;;;;;;;11.70;6.10;;;;;;;18.50;83.55;96763.78;5043503;28;20040;-52
2023/06/30 05:23:54;;;;;;;8.02;5.05;;;;;;;18.56;82.64;96771.53;5048496;28;20129;-58
2023/06/30 05:26:20;;;;;;;8.85;5.05;;;;;;;18.65;81.91;96771.53;5044941;28;20064;-55
2023/06/30 05:28:47;;;;;;;8.63;4.93;;;;;;;18.76;81.10;96773.97;5042883;28;20079;-53
2023/06/30 05:31:30;;;;;;;8.90;5.07;;;;;;;18.88;81.11;96782.38;5039986;28;20041;-56
2023/06/30 05:33:56;;;;;;;7.30;4.75;;;;;;;18.90;80.76;96779.31;5049932;28;20041;-54
2023/06/30 05:36:23;;;;;;;10.25;5.25;;;;;;;18.86;81.16;96784.63;5043167;28;20128;-55
2023/06/30 05:38:50;;;;;;;9.10;5.30;;;;;;;18.85;80.70;96783.84;5050755;28;20033;-54
2023/06/30 05:41:16;;;;;;;7.90;5.50;;;;;;;18.86;82.43;96787.38;5043823;28;20169;-55
2023/06/30 05:43:43;;;;;;;10.40;4.90;;;;;;;18.92;80.62;96796.25;5050667;28;20043;-54
2023/06/30 05:46:09;;;;;;;10.43;5.13;;;;;;;19.02;80.54;96793.19;5047468;28;20044;-55
2023/06/30 05:48:36;;;;;;;10.38;5.25;;;;;;;19.03;81.79;96800.31;5043458;28;20103;-56
2023/06/30 05:51:03;;;;;;;10.55;5.65;;;;;;;18.92;84.90;96804.47;5048336;28;20121;-55
2023/06/30 05:53:29;;;;;;;9.35;5.30;;;;;;;18.91;84.76;96806.41;5044664;28;20324;-55
2023/06/30 05:55:56;;;;;;;7.05;5.38;;;;;;;18.95;82.74;96801.88;5043870;28;20049;-51
2023/06/30 05:58:28;;;;;;;12.20;5.20;;;;;;;18.95;82.79;96799.16;5045317;28;20052;-56
2023/06/30 06:00:54;;;;;;;7.18;5.05;;;;;;;18.96;82.91;96806.28;5046981;28;20531;-57
2023/06/30 06:03:21;;;;;;;8.85;5.88;;;;;;;19.06;81.20;96798.88;5040521;28;20044;-55
2023/06/30 06:05:48;;;;;;;9.13;5.07;;;;;;;19.12;81.30;96789.34;5041312;28;20041;-54
2023/06/30 06:08:15;;;;;;;8.40;4.97;;;;;;;19.17;80.81;96785.66;5048734;28;20145;-55
2023/06/30 06:10:43;;;;;;;9.23;5.90;;;;;;;19.19;81.42;96791.59;5051876;28;20423;-56
2023/06/30 06:13:09;;;;;;;7.97;5.22;;;;;;;19.35;79.79;96802.94;5049850;28;20099;-59
2023/06/30 06:15:36;;;;;;;9.50;5.40;;;;;;;19.37;81.26;96797.91;5041318;28;20479;-56
2023/06/30 06:18:03;;;;;;;12.18;5.32;;;;;;;19.46;79.76;96801.44;5038368;28;20991;-56
2023/06/30 06:20:29;;;;;;;8.05;5.75;;;;;;;19.44;80.58;96797.41;5047946;28;20036;-57
2023/06/30 06:22:56;;;;;;;9.25;5.60;;;;;;;19.48;79.88;96807.44;5052050;28;20036;-55
2023/06/30 06:25:22;;;;;;;11.38;6.15;;;;;;;19.54;80.15;96801.75;5046388;28;20045;-53
2023/06/30 06:27:49;;;;;;;10.02;5.18;;;;;;;19.56;79.58;96807.72;5043365;28;20044;-56
2023/06/30 06:30:15;;;;;;;12.20;6.55;;;;;;;19.58;80.13;96810.97;5048380;28;20053;-56
2023/06/30 06:32:42;;;;;;;12.07;5.97;;;;;;;19.52;80.11;96815.00;5051909;28;20123;-58
2023/06/30 06:35:08;;;;;;;9.15;5.07;;;;;;;19.55;80.35;96817.91;5041228;28;20033;-57
2023/06/30 06:37:35;;;;;;;9.65;6.53;;;;;;;19.65;81.04;96815.97;5042290;28;20417;-59
2023/06/30 06:40:02;;;;;;;10.95;5.40;;;;;;;19.84;80.20;96819.16;5051167;28;20158;-59
2023/06/30 06:42:28;;;;;;;7.85;5.65;;;;;;;19.96;79.48;96815.75;5046479;28;20058;-59
2023/06/30 06:44:55;;;;;;;8.02;5.30;;;;;;;20.02;80.19;96819.94;5044473;28;20033;-59
2023/06/30 06:47:59;;;;;;;10.32;6.22;;;;;;;20.00;81.67;96821.41;5045250;28;20055;-57
2023/06/30 06:50:26;;;;;;;11.27;6.78;;;;;;;20.06;80.97;96817.38;5052443;28;20064;-58
2023/06/30 06:52:52;;;;;;;10.93;5.85;;;;;;;20.14;80.41;96823.94;5053283;28;20047;-55
2023/06/30 06:55:19;;;;;;;10.27;6.00;;;;;;;20.21;80.35;96820.69;5058197;28;20589;-57
2023/06/30 06:57:48;;;;;;;10.00;5.95;;;;;;;20.11;81.13;96824.59;5044538;28;20067;-57
2023/06/30 07:00:18;;;;;;;9.45;6.00;;;;;;;19.71;83.68;96822.88;5039251;28;20061;-58
2023/06/30 07:02:44;;;;;;;9.55;6.25;;;;;;;19.57;84.58;96829.38;5057866;28;20132;-56
2023/06/30 07:05:11;;;;;;;13.60;7.25;;;;;;;19.51;85.00;96830.69;5051966;28;20101;-56
2023/06/30 07:07:38;;;;;;;9.90;6.10;;;;;;;19.53;85.17;96830.34;5047293;28;20323;-58
2023/06/30 07:10:06;;;;;;;13.40;6.55;;;;;;;19.58;85.54;96841.16;5048828;28;20510;-57
2023/06/30 07:12:32;;;;;;;15.35;6.60;;;;;;;19.67;85.73;96847.47;5043995;28;20045;-56
2023/06/30 07:14:59;;;;;;;9.35;6.38;;;;;;;19.74;89.97;96850.53;5051679;28;20037;-56
2023/06/30 07:17:25;;;;;;;11.93;7.40;;;;;;;19.76;89.72;96859.22;5046813;28;20122;-57
2023/06/30 07:19:52;;;;;;;10.68;6.75;;;;;;;19.73;89.27;96862.66;5044010;28;20045;-57
2023/06/30 07:22:20;;;;;;;13.70;7.82;;;;;;;19.47;92.90;96868.94;5050448;28;20040;-58
2023/06/30 07:24:47;;;;;;;10.77;7.07;;;;;;;19.21;93.80;96874.44;5037904;28;20045;-59
2023/06/30 07:27:14;;;;;;;13.27;7.68;;;;;;;19.32;94.70;96872.97;5048560;28;20554;-58
2023/06/30 07:29:40;;;;;;;11.23;7.68;;;;;;;19.34;95.43;96881.69;5043444;28;20053;-55
2023/06/30 07:32:07;;;;;;;17.92;8.73;;;;;;;18.79;100.00;96880.28;5040165;28;20123;-57
2023/06/30 07:34:33;;;;;;;16.10;9.65;;;;;;;18.62;100.00;96886.50;5061118;28;20032;-56
2023/06/30 07:37:04;;;;;;;14.15;9.70;;;;;;;18.54;100.00;96897.13;5047409;28;20091;-56
2023/06/30 07:39:33;;;;;;;14.27;9.00;;;;;;;18.70;100.00;96891.22;5047445;28;20045;-55
2023/06/30 07:41:59;;;;;;;14.05;9.43;;;;;;;18.75;100.00;96893.81;5049845;28;20738;-58
2023/06/30 07:44:26;;;;;;;14.32;9.15;;;;;;;18.71;100.00;96901.06;5044220;28;20055;-56
2023/06/30 07:46:53;;;;;;;13.40;9.15;;;;;;;18.74;100.00;96896.88;5052423;28;20047;-58
2023/06/30 07:49:21;;;;;;;12.70;8.52;;;;;;;18.67;100.00;96909.13;5046282;28;20103;-58
2023/06/30 07:51:48;;;;;;;14.07;9.43;;;;;;;18.62;100.00;96909.28;5048692;28;20458;-57
2023/06/30 07:54:15;;;;;;;14.55;10.43;;;;;;;18.58;100.00;96906.31;5055932;28;20040;-58
2023/06/30 07:56:41;;;;;;;17.30;11.35;;;;;;;18.48;100.00;96914.03;5042218;28;20041;-58
2023/06/30 07:59:08;;;;;;;15.35;10.95;;;;;;;18.39;100.00;96912.03;5053518;28;20040;-58
2023/06/30 08:01:35;;;;;;;19.25;11.82;;;;;;;18.19;100.00;96916.94;5049981;28;20047;-59
2023/06/30 08:04:01;;;;;;;16.92;11.45;;;;;;;18.09;100.00;96919.16;5049063;28;20047;-56
2023/06/30 08:06:28;;;;;;;17.95;12.40;;;;;;;17.96;100.00;96927.09;5049184;28;20132;-59
2023/06/30 08:08:55;;;;;;;20.77;12.02;;;;;;;17.94;100.00;96932.06;5045270;28;20518;-58
2023/06/30 08:11:21;;;;;;;15.32;10.68;;;;;;;17.97;100.00;96925.97;5051052;28;20045;-58
2023/06/30 08:13:48;;;;;;;19.00;12.32;;;;;;;17.96;100.00;96929.00;5047286;28;20063;-57
2023/06/30 08:16:15;;;;;;;19.67;12.23;;;;;;;17.79;100.00;96949.66;5048086;28;20048;-57
2023/06/30 08:18:41;;;;;;;19.73;12.25;;;;;;;17.61;100.00;96954.19;5048446;28;20041;-59
2023/06/30 08:21:18;;;;;;;17.20;11.85;;;;;;;17.59;100.00;96967.38;5037356;28;20053;-59
2023/06/30 08:23:45;;;;;;;22.92;12.88;;;;;;;17.47;100.00;96968.69;5051308;28;20049;-59
2023/06/30 08:26:11;;;;;;;22.30;12.80;;;;;;;17.49;100.00;96966.47;5039473;28;20110;-56
2023/06/30 08:28:38;;;;;;;19.27;12.25;;;;;;;17.61;100.00;96960.47;5051089;28;20052;-58
2023/06/30 08:31:04;;;;;;;18.40;12.80;;;;;;;17.57;100.00;96955.94;5050247;28;22053;-59
2023/06/30 08:33:31;;;;;;;17.45;12.30;;;;;;;17.38;100.00;96963.16;5049343;28;20117;-59
2023/06/30 08:36:01;;;;;;;19.10;12.77;;;;;;;17.34;100.00;96967.63;5041393;28;20029;-59
2023/06/30 08:38:28;;;;;;;19.85;12.57;;;;;;;17.31;100.00;96967.44;5042103;28;20052;-58
2023/06/30 08:40:55;;;;;;;17.67;11.90;;;;;;;17.24;100.00;96968.63;5042670;28;20037;-59
2023/06/30 08:43:25;;;;;;;17.85;12.70;;;;;;;17.40;100.00;96960.13;5057199;28;20048;-58
2023/06/30 08:45:53;;;;;;;22.15;12.70;;;;;;;17.36;100.00;96957.16;5053423;28;20396;-59
2023/06/30 08:48:20;;;;;;;19.45;12.25;;;;;;;17.33;100.00;96957.81;5053385;28;20082;-58
2023/06/30 08:50:47;;;;;;;20.38;13.05;;;;;;;17.29;100.00;96974.00;5050064;28;20051;-57
2023/06/30 08:53:17;;;;;;;17.88;12.50;;;;;;;17.35;100.00;96973.88;5059526;28;20047;-59
2023/06/30 08:55:46;;;;;;;15.10;10.20;;;;;;;17.28;100.00;96964.19;5037888;28;20041;-57
2023/06/30 08:58:13;;;;;;;15.10;10.30;;;;;;;17.28;100.00;96969.66;5040455;28;20540;-58
2023/06/30 09:00:53;;;;;;;13.60;9.68;;;;;;;17.33;100.00;96949.59;5050005;28;20041;-56
2023/06/30 09:03:20;;;;;;;14.02;9.25;;;;;;;17.48;100.00;96940.25;5055151;28;20048;-59
2023/06/30 09:05:49;;;;;;;16.85;9.98;;;;;;;17.53;100.00;96942.03;5037367;28;20067;-58
2023/06/30 09:08:21;;;;;;;15.05;10.02;;;;;;;17.61;100.00;96945.97;5048199;28;20106;-58
2023/06/30 09:10:48;;;;;;;12.65;9.00;;;;;;;17.76;100.00;96933.88;5052372;28;20528;-57
2023/06/30 09:13:18;;;;;;;12.70;8.77;;;;;;;17.83;100.00;96933.44;5044008;28;20037;-58
2023/06/30 09:15:46;;;;;;;13.13;9.70;;;;;;;18.00;100.00;96947.25;5049581;28;20821;-59
2023/06/30 09:18:13;;;;;;;13.25;8.85;;;;;;;18.00;100.00;96922.59;5033807;28;20068;-57
2023/06/30 09:20:40;;;;;;;14.48;8.82;;;;;;;18.19;100.00;96927.91;5051774;28;20099;-59
2023/06/30 09:23:07;;;;;;;13.80;9.38;;;;;;;18.23;100.00;96928.09;5038931;28;20059;-56
2023/06/30 09:25:34;;;;;;;13.30;9.48;;;;;;;18.23;100.00;96910.81;5037301;28;20036;-59
2023/06/30 09:28:07;;;;;;;15.48;9.73;;;;;;;18.10;100.00;96918.00;5049595;28;20037;-58
2023/06/30 09:30:36;;;;;;;19.75;11.50;;;;;;;18.19;100.00;96907.91;5048635;28;20407;-56
2023/06/30 09:33:02;;;;;;;15.40;10.45;;;;;;;18.43;100.00;96910.28;5054697;28;20048;-55
2023/06/30 09:35:39;;;;;;;17.63;11.77;;;;;;;18.62;100.00;96916.66;5052391;28;20040;-59
2023/06/30 09:38:13;;;;;;;21.08;13.95;;;;;;;18.62;100.00;96906.53;5050421;28;20052;-59
2023/06/30 09:40:44;;;;;;;20.45;13.15;;;;;;;18.67;100.00;96891.84;5042306;28;20114;-59
2023/06/30 09:43:22;;;;;;;22.92;15.40;;;;;;;18.37;100.00;96894.31;5049617;28;20124;-58
2023/06/30 09:45:56;;;;;;;22.25;16.52;;;;;;;18.29;100.00;96904.09;5047452;28;20036;-57
2023/06/30 09:48:38;;;;;;;23.85;17.55;;;;;;;18.52;100.00;96907.59;5047265;28;20463;-59
2023/06/30 09:51:07;;;;;;;;;;;;;;;18.50;100.00;96904.34;5044026;28;20041;-56
2023/06/30 09:53:38;;;;;;;24.80;17.67;;;;;;;18.62;100.00;96906.53;5050175;28;19932;-58
2023/06/30 09:56:04;;;;;;;29.23;19.02;;;;;;;18.50;100.00;96901.63;5044838;28;20048;-58
2023/06/30 09:58:31;;;;;;;25.08;17.13;;;;;;;18.61;100.00;96902.16;5047964;28;20085;-58
2023/06/30 10:00:58;;;;;;;24.35;17.23;;;;;;;18.67;100.00;96898.16;5048016;28;20122;-59
2023/06/30 10:03:25;;;;;;;28.92;19.65;;;;;;;18.84;100.00;96899.34;5039945;28;20040;-59
2023/06/30 10:05:53;;;;;;;27.23;19.40;;;;;;;19.01;100.00;96895.81;5050985;28;20037;-57
2023/06/30 10:08:23;;;;;;;27.42;19.58;;;;;;;19.23;100.00;96902.34;5037967;28;20483;-58
2023/06/30 10:10:54;;;;;;;26.00;18.15;;;;;;;19.26;100.00;96904.47;5054846;28;20102;-57
2023/06/30 10:13:21;;;;;;;30.67;19.48;;;;;;;19.47;100.00;96901.09;5056168;28;20084;-59
2023/06/30 10:15:49;;;;;;;26.63;18.92;;;;;;;19.53;100.00;96902.53;5049126;28;20044;-59
2023/06/30 10:18:17;;;;;;;28.33;19.13;;;;;;;19.44;100.00;96901.72;5057229;28;20040;-58
2023/06/30 10:20:44;;;;;;;27.05;17.73;;;;;;;19.44;100.00;96901.72;5057309;28;20133;-59
2023/06/30 10:23:19;;;;;;;;;;;;;;;19.39;100.00;96908.19;5054097;28;20419;-59
2023/06/30 10:25:48;;;;;;;29.37;18.93;;;;;;;19.16;100.00;96908.31;5062247;28;20001;-58
2023/06/30 10:28:16;;;;;;;28.50;20.08;;;;;;;19.21;100.00;96907.38;5049665;28;20044;-59
2023/06/30 10:30:44;;;;;;;28.83;19.63;;;;;;;19.12;100.00;96906.53;5044516;28;20055;-58
2023/06/30 10:33:10;;;;;;;31.27;18.98;;;;;;;18.98;100.00;96911.00;5058944;28;20643;-59
2023/06/30 10:35:38;;;;;;;28.27;19.13;;;;;;;18.85;100.00;96904.50;5048785;28;20176;-58
2023/06/30 10:38:05;;;;;;;27.95;20.45;;;;;;;18.94;100.00;96911.97;5050549;28;20645;-59
2023/06/30 10:40:32;;;;;;;34.70;20.58;;;;;;;19.04;100.00;96910.84;5046024;28;20776;-59
2023/06/30 10:42:59;;;;;;;28.95;19.90;;;;;;;18.91;100.00;96910.63;5053782;28;20059;-58
2023/06/30 10:46:07;;;;;;;36.40;21.20;;;;;;;19.16;100.00;96913.00;5054410;28;20064;-55
2023/06/30 10:48:39;;;;;;;29.35;19.80;;;;;;;19.13;100.00;96906.22;5054461;28;20138;-58
2023/06/30 10:51:06;;;;;;;27.23;20.48;;;;;;;19.29;100.00;96923.03;5049415;28;20044;-59
2023/06/30 10:53:34;;;;;;;32.03;19.88;;;;;;;19.15;100.00;96914.13;5049840;28;20052;-57
2023/06/30 10:56:02;;;;;;;28.15;19.05;;;;;;;19.20;100.00;96909.28;5050657;28;20123;-58
2023/06/30 10:58:29;;;;;;;29.00;18.70;;;;;;;18.95;100.00;96917.09;5052442;28;20056;-58
2023/06/30 11:01:06;;;;;;;29.85;19.75;;;;;;;18.78;100.00;96920.63;5052815;28;20408;-57
2023/06/30 11:03:57;;;;;;;29.77;19.25;;;;;;;18.81;100.00;96919.16;5055708;28;20049;-58
2023/06/30 11:06:25;;;;;;;27.98;18.77;;;;;;;18.79;100.00;96921.44;5054256;28;20141;-59
2023/06/30 11:09:00;;;;;;;30.35;19.58;;;;;;;18.85;100.00;96925.63;5043171;28;20045;-58
2023/06/30 11:11:27;;;;;;;28.13;19.02;;;;;;;18.79;100.00;96938.69;5056191;28;20514;-59
2023/06/30 11:14:06;;;;;;;31.02;20.05;;;;;;;18.36;100.00;96936.53;5043204;28;20570;-59
2023/06/30 11:17:02;;;;;;;32.83;19.27;;;;;;;18.40;100.00;96943.84;5048432;28;20036;-59
2023/06/30 11:19:28;;;;;;;27.13;18.35;;;;;;;18.46;100.00;96930.78;5038694;28;20051;-58
2023/06/30 11:22:32;;;;;;;27.05;18.67;;;;;;;18.36;100.00;96907.22;5043282;28;20259;-58
2023/06/30 11:25:13;;;;;;;28.83;18.48;;;;;;;18.53;100.00;96903.72;5037797;28;20057;-58
2023/06/30 11:27:40;;;;;;;26.30;17.48;;;;;;;18.63;100.00;96904.56;5045268;28;20072;-58
2023/06/30 11:30:07;;;;;;;27.30;18.20;;;;;;;18.74;100.00;96903.19;5043556;28;20049;-58